sensor_id;sensor_type;location;lat;lon;timestamp;P1;durP1;ratioP1;P2;durP2;ratioP2
55465;SDS011;41329;41.594;23.810;2024-01-15T00:00:37;81.13;;;38.27;;
55465;SDS011;41329;41.594;23.810;2024-01-15T00:03:05;82.03;;;39.73;;
55465;SDS011;41329;41.594;23.810;2024-01-15T00:05:31;83.23;;;39.47;;
55465;SDS011;41329;41.594;23.810;2024-01-15T00:07:56;96.23;;;42.57;;
55465;SDS011;41329;41.594;23.810;2024-01-15T00:10:22;88.57;;;39.83;;
55465;SDS011;41329;41.594;23.810;2024-01-15T00:12:48;88.40;;;40.73;;
55465;SDS011;41329;41.594;23.810;2024-01-15T00:15:14;92.50;;;43.43;;
55465;SDS011;41329;41.594;23.810;2024-01-15T00:17:39;93.67;;;42.27;;
55465;SDS011;41329;41.594;23.810;2024-01-15T00:20:05;84.47;;;40.00;;
55465;SDS011;41329;41.594;23.810;2024-01-15T00:22:31;88.27;;;41.77;;
55465;SDS011;41329;41.594;23.810;2024-01-15T00:24:57;79.47;;;37.27;;
55465;SDS011;41329;41.594;23.810;2024-01-15T00:27:22;74.10;;;35.17;;
55465;SDS011;41329;41.594;23.810;2024-01-15T00:29:48;73.87;;;35.37;;
55465;SDS011;41329;41.594;23.810;2024-01-15T00:32:15;70.00;;;33.90;;
55465;SDS011;41329;41.594;23.810;2024-01-15T00:34:41;64.60;;;31.80;;
55465;SDS011;41329;41.594;23.810;2024-01-15T00:37:06;57.93;;;29.27;;
55465;SDS011;41329;41.594;23.810;2024-01-15T00:39:32;58.73;;;30.40;;
55465;SDS011;41329;41.594;23.810;2024-01-15T00:41:58;57.33;;;32.27;;
55465;SDS011;41329;41.594;23.810;2024-01-15T00:44:23;59.07;;;31.83;;
55465;SDS011;41329;41.594;23.810;2024-01-15T00:46:48;63.53;;;33.73;;
55465;SDS011;41329;41.594;23.810;2024-01-15T00:49:14;64.47;;;33.07;;
55465;SDS011;41329;41.594;23.810;2024-01-15T00:51:40;74.07;;;35.33;;
55465;SDS011;41329;41.594;23.810;2024-01-15T00:54:06;85.33;;;39.53;;
55465;SDS011;41329;41.594;23.810;2024-01-15T00:56:31;87.50;;;38.70;;
55465;SDS011;41329;41.594;23.810;2024-01-15T00:58:57;67.73;;;33.57;;
55465;SDS011;41329;41.594;23.810;2024-01-15T01:01:22;69.70;;;35.67;;
55465;SDS011;41329;41.594;23.810;2024-01-15T01:03:47;67.60;;;33.73;;
55465;SDS011;41329;41.594;23.810;2024-01-15T01:06:13;75.83;;;37.07;;
55465;SDS011;41329;41.594;23.810;2024-01-15T01:08:38;81.93;;;39.37;;
55465;SDS011;41329;41.594;23.810;2024-01-15T01:11:04;77.27;;;37.40;;
55465;SDS011;41329;41.594;23.810;2024-01-15T01:13:31;85.93;;;39.67;;
55465;SDS011;41329;41.594;23.810;2024-01-15T01:15:57;101.77;;;44.00;;
55465;SDS011;41329;41.594;23.810;2024-01-15T01:18:23;109.33;;;45.10;;
55465;SDS011;41329;41.594;23.810;2024-01-15T01:20:48;110.30;;;47.23;;
55465;SDS011;41329;41.594;23.810;2024-01-15T01:23:14;109.70;;;45.87;;
55465;SDS011;41329;41.594;23.810;2024-01-15T01:25:39;100.30;;;43.90;;
55465;SDS011;41329;41.594;23.810;2024-01-15T01:28:04;106.70;;;44.53;;
55465;SDS011;41329;41.594;23.810;2024-01-15T01:30:30;106.00;;;44.43;;
55465;SDS011;41329;41.594;23.810;2024-01-15T01:32:55;97.93;;;41.83;;
55465;SDS011;41329;41.594;23.810;2024-01-15T01:35:21;91.93;;;42.50;;
55465;SDS011;41329;41.594;23.810;2024-01-15T01:37:47;80.27;;;37.67;;
55465;SDS011;41329;41.594;23.810;2024-01-15T01:40:12;75.43;;;34.33;;
55465;SDS011;41329;41.594;23.810;2024-01-15T01:42:38;74.67;;;34.77;;
55465;SDS011;41329;41.594;23.810;2024-01-15T01:45:04;79.07;;;35.30;;
55465;SDS011;41329;41.594;23.810;2024-01-15T01:47:29;71.83;;;34.73;;
55465;SDS011;41329;41.594;23.810;2024-01-15T01:49:55;70.73;;;34.30;;
55465;SDS011;41329;41.594;23.810;2024-01-15T01:52:21;72.00;;;34.20;;
55465;SDS011;41329;41.594;23.810;2024-01-15T01:54:47;75.50;;;34.47;;
55465;SDS011;41329;41.594;23.810;2024-01-15T01:57:12;69.57;;;33.73;;
55465;SDS011;41329;41.594;23.810;2024-01-15T01:59:39;67.13;;;33.53;;
55465;SDS011;41329;41.594;23.810;2024-01-15T02:02:05;73.17;;;33.90;;
55465;SDS011;41329;41.594;23.810;2024-01-15T02:04:31;73.57;;;35.77;;
55465;SDS011;41329;41.594;23.810;2024-01-15T02:06:58;79.13;;;35.73;;
55465;SDS011;41329;41.594;23.810;2024-01-15T02:09:24;78.57;;;35.23;;
55465;SDS011;41329;41.594;23.810;2024-01-15T02:11:50;71.83;;;34.00;;
55465;SDS011;41329;41.594;23.810;2024-01-15T02:14:16;77.23;;;34.00;;
55465;SDS011;41329;41.594;23.810;2024-01-15T02:16:41;75.57;;;34.43;;
55465;SDS011;41329;41.594;23.810;2024-01-15T02:19:06;69.00;;;32.13;;
55465;SDS011;41329;41.594;23.810;2024-01-15T02:21:32;62.00;;;31.43;;
55465;SDS011;41329;41.594;23.810;2024-01-15T02:23:57;61.30;;;31.33;;
55465;SDS011;41329;41.594;23.810;2024-01-15T02:26:23;63.80;;;30.13;;
55465;SDS011;41329;41.594;23.810;2024-01-15T02:28:48;68.13;;;31.47;;
55465;SDS011;41329;41.594;23.810;2024-01-15T02:31:16;61.30;;;31.53;;
55465;SDS011;41329;41.594;23.810;2024-01-15T02:33:42;65.93;;;31.50;;
55465;SDS011;41329;41.594;23.810;2024-01-15T02:36:07;64.73;;;31.47;;
55465;SDS011;41329;41.594;23.810;2024-01-15T02:38:33;50.87;;;29.10;;
55465;SDS011;41329;41.594;23.810;2024-01-15T02:40:58;56.50;;;30.77;;
55465;SDS011;41329;41.594;23.810;2024-01-15T02:43:24;56.07;;;29.83;;
55465;SDS011;41329;41.594;23.810;2024-01-15T02:45:49;59.50;;;29.57;;
55465;SDS011;41329;41.594;23.810;2024-01-15T02:48:15;59.57;;;29.70;;
55465;SDS011;41329;41.594;23.810;2024-01-15T02:50:40;59.60;;;29.40;;
55465;SDS011;41329;41.594;23.810;2024-01-15T02:53:05;59.87;;;29.90;;
55465;SDS011;41329;41.594;23.810;2024-01-15T02:55:31;64.73;;;32.50;;
55465;SDS011;41329;41.594;23.810;2024-01-15T02:57:56;63.50;;;30.13;;
55465;SDS011;41329;41.594;23.810;2024-01-15T03:00:22;52.77;;;26.97;;
55465;SDS011;41329;41.594;23.810;2024-01-15T03:02:49;49.70;;;26.10;;
55465;SDS011;41329;41.594;23.810;2024-01-15T03:05:15;65.63;;;29.87;;
55465;SDS011;41329;41.594;23.810;2024-01-15T03:07:41;59.87;;;31.93;;
55465;SDS011;41329;41.594;23.810;2024-01-15T03:10:07;82.30;;;36.60;;
55465;SDS011;41329;41.594;23.810;2024-01-15T03:12:32;135.40;;;55.80;;
55465;SDS011;41329;41.594;23.810;2024-01-15T03:14:58;218.73;;;86.67;;
55465;SDS011;41329;41.594;23.810;2024-01-15T03:17:25;117.23;;;49.83;;
55465;SDS011;41329;41.594;23.810;2024-01-15T03:19:51;87.63;;;37.90;;
55465;SDS011;41329;41.594;23.810;2024-01-15T03:22:16;86.80;;;37.63;;
55465;SDS011;41329;41.594;23.810;2024-01-15T03:24:42;89.37;;;38.37;;
55465;SDS011;41329;41.594;23.810;2024-01-15T03:27:08;84.07;;;39.30;;
55465;SDS011;41329;41.594;23.810;2024-01-15T03:29:33;77.47;;;36.53;;
55465;SDS011;41329;41.594;23.810;2024-01-15T03:31:59;71.93;;;34.67;;
55465;SDS011;41329;41.594;23.810;2024-01-15T03:34:24;68.30;;;33.30;;
55465;SDS011;41329;41.594;23.810;2024-01-15T03:36:50;60.17;;;32.47;;
55465;SDS011;41329;41.594;23.810;2024-01-15T03:39:15;62.03;;;32.40;;
55465;SDS011;41329;41.594;23.810;2024-01-15T03:41:41;62.97;;;31.17;;
55465;SDS011;41329;41.594;23.810;2024-01-15T03:44:06;63.20;;;30.70;;
55465;SDS011;41329;41.594;23.810;2024-01-15T03:46:31;63.47;;;32.30;;
55465;SDS011;41329;41.594;23.810;2024-01-15T03:48:57;64.60;;;33.77;;
55465;SDS011;41329;41.594;23.810;2024-01-15T03:51:22;63.30;;;32.30;;
55465;SDS011;41329;41.594;23.810;2024-01-15T03:53:48;66.10;;;33.23;;
55465;SDS011;41329;41.594;23.810;2024-01-15T03:56:13;62.07;;;32.50;;
55465;SDS011;41329;41.594;23.810;2024-01-15T03:58:39;53.57;;;30.10;;
55465;SDS011;41329;41.594;23.810;2024-01-15T04:01:07;42.20;;;24.53;;
55465;SDS011;41329;41.594;23.810;2024-01-15T04:03:36;42.70;;;23.63;;
55465;SDS011;41329;41.594;23.810;2024-01-15T04:06:02;36.03;;;23.27;;
55465;SDS011;41329;41.594;23.810;2024-01-15T04:08:28;41.30;;;24.43;;
55465;SDS011;41329;41.594;23.810;2024-01-15T04:10:53;68.47;;;36.80;;
55465;SDS011;41329;41.594;23.810;2024-01-15T04:13:20;77.07;;;33.53;;
55465;SDS011;41329;41.594;23.810;2024-01-15T04:15:45;59.33;;;31.43;;
55465;SDS011;41329;41.594;23.810;2024-01-15T04:18:11;97.50;;;42.10;;
55465;SDS011;41329;41.594;23.810;2024-01-15T04:20:36;95.63;;;41.43;;
55465;SDS011;41329;41.594;23.810;2024-01-15T04:23:02;101.23;;;45.73;;
55465;SDS011;41329;41.594;23.810;2024-01-15T04:25:27;102.27;;;46.23;;
55465;SDS011;41329;41.594;23.810;2024-01-15T04:27:52;56.03;;;27.07;;
55465;SDS011;41329;41.594;23.810;2024-01-15T04:30:18;50.63;;;25.23;;
55465;SDS011;41329;41.594;23.810;2024-01-15T04:32:43;43.57;;;23.47;;
55465;SDS011;41329;41.594;23.810;2024-01-15T04:35:09;42.77;;;24.50;;
55465;SDS011;41329;41.594;23.810;2024-01-15T04:37:34;67.77;;;32.23;;
55465;SDS011;41329;41.594;23.810;2024-01-15T04:40:00;70.30;;;34.63;;
55465;SDS011;41329;41.594;23.810;2024-01-15T04:42:25;74.87;;;35.97;;
55465;SDS011;41329;41.594;23.810;2024-01-15T04:44:51;85.53;;;37.17;;
55465;SDS011;41329;41.594;23.810;2024-01-15T04:47:16;80.50;;;39.23;;
55465;SDS011;41329;41.594;23.810;2024-01-15T04:49:42;84.27;;;38.03;;
55465;SDS011;41329;41.594;23.810;2024-01-15T04:52:07;88.47;;;40.13;;
55465;SDS011;41329;41.594;23.810;2024-01-15T04:54:35;90.80;;;40.23;;
55465;SDS011;41329;41.594;23.810;2024-01-15T04:57:01;90.83;;;41.40;;
55465;SDS011;41329;41.594;23.810;2024-01-15T04:59:27;91.93;;;43.53;;
55465;SDS011;41329;41.594;23.810;2024-01-15T05:01:53;98.20;;;44.03;;
55465;SDS011;41329;41.594;23.810;2024-01-15T05:04:18;91.03;;;40.20;;
55465;SDS011;41329;41.594;23.810;2024-01-15T05:06:44;100.30;;;45.63;;
55465;SDS011;41329;41.594;23.810;2024-01-15T05:09:09;103.73;;;51.23;;
55465;SDS011;41329;41.594;23.810;2024-01-15T05:11:34;114.20;;;56.67;;
55465;SDS011;41329;41.594;23.810;2024-01-15T05:14:00;105.20;;;51.50;;
55465;SDS011;41329;41.594;23.810;2024-01-15T05:16:25;98.77;;;47.40;;
55465;SDS011;41329;41.594;23.810;2024-01-15T05:18:50;103.60;;;44.97;;
55465;SDS011;41329;41.594;23.810;2024-01-15T05:21:16;91.07;;;41.13;;
55465;SDS011;41329;41.594;23.810;2024-01-15T05:23:41;81.90;;;38.37;;
55465;SDS011;41329;41.594;23.810;2024-01-15T05:26:07;92.57;;;41.70;;
55465;SDS011;41329;41.594;23.810;2024-01-15T05:28:34;194.03;;;79.93;;
55465;SDS011;41329;41.594;23.810;2024-01-15T05:30:59;179.97;;;74.50;;
55465;SDS011;41329;41.594;23.810;2024-01-15T05:33:25;147.30;;;62.70;;
55465;SDS011;41329;41.594;23.810;2024-01-15T05:35:50;153.87;;;66.07;;
55465;SDS011;41329;41.594;23.810;2024-01-15T05:38:16;142.37;;;62.93;;
55465;SDS011;41329;41.594;23.810;2024-01-15T05:40:42;162.30;;;72.60;;
55465;SDS011;41329;41.594;23.810;2024-01-15T05:43:07;156.03;;;68.80;;
55465;SDS011;41329;41.594;23.810;2024-01-15T05:45:34;161.47;;;71.83;;
55465;SDS011;41329;41.594;23.810;2024-01-15T05:48:00;163.33;;;75.70;;
55465;SDS011;41329;41.594;23.810;2024-01-15T05:50:26;148.73;;;67.37;;
55465;SDS011;41329;41.594;23.810;2024-01-15T05:52:51;162.40;;;71.57;;
55465;SDS011;41329;41.594;23.810;2024-01-15T05:55:17;141.53;;;66.37;;
55465;SDS011;41329;41.594;23.810;2024-01-15T05:57:43;116.60;;;54.53;;
55465;SDS011;41329;41.594;23.810;2024-01-15T06:00:09;113.97;;;52.43;;
55465;SDS011;41329;41.594;23.810;2024-01-15T06:02:36;107.37;;;52.03;;
55465;SDS011;41329;41.594;23.810;2024-01-15T06:05:03;133.87;;;58.40;;
55465;SDS011;41329;41.594;23.810;2024-01-15T06:07:29;170.33;;;79.13;;
55465;SDS011;41329;41.594;23.810;2024-01-15T06:09:54;163.97;;;76.07;;
55465;SDS011;41329;41.594;23.810;2024-01-15T06:12:22;117.43;;;54.07;;
55465;SDS011;41329;41.594;23.810;2024-01-15T06:14:48;106.13;;;47.50;;
55465;SDS011;41329;41.594;23.810;2024-01-15T06:17:13;86.83;;;42.30;;
55465;SDS011;41329;41.594;23.810;2024-01-15T06:19:39;120.23;;;54.57;;
55465;SDS011;41329;41.594;23.810;2024-01-15T06:22:04;144.43;;;65.20;;
55465;SDS011;41329;41.594;23.810;2024-01-15T06:24:29;146.30;;;71.27;;
55465;SDS011;41329;41.594;23.810;2024-01-15T06:26:55;134.47;;;61.43;;
55465;SDS011;41329;41.594;23.810;2024-01-15T06:29:20;107.73;;;49.97;;
55465;SDS011;41329;41.594;23.810;2024-01-15T06:31:46;100.93;;;48.93;;
55465;SDS011;41329;41.594;23.810;2024-01-15T06:34:11;97.80;;;43.83;;
55465;SDS011;41329;41.594;23.810;2024-01-15T06:36:37;89.67;;;40.50;;
55465;SDS011;41329;41.594;23.810;2024-01-15T06:39:02;73.67;;;36.00;;
55465;SDS011;41329;41.594;23.810;2024-01-15T06:41:28;77.27;;;37.73;;
55465;SDS011;41329;41.594;23.810;2024-01-15T06:43:53;81.70;;;41.13;;
55465;SDS011;41329;41.594;23.810;2024-01-15T06:46:19;85.60;;;39.83;;
55465;SDS011;41329;41.594;23.810;2024-01-15T06:48:46;82.63;;;42.57;;
55465;SDS011;41329;41.594;23.810;2024-01-15T06:51:11;120.30;;;55.70;;
55465;SDS011;41329;41.594;23.810;2024-01-15T06:53:36;108.47;;;52.07;;
55465;SDS011;41329;41.594;23.810;2024-01-15T06:56:02;94.63;;;45.77;;
55465;SDS011;41329;41.594;23.810;2024-01-15T06:58:28;84.10;;;40.07;;
55465;SDS011;41329;41.594;23.810;2024-01-15T07:00:56;91.60;;;43.07;;
55465;SDS011;41329;41.594;23.810;2024-01-15T07:03:21;64.17;;;32.63;;
55465;SDS011;41329;41.594;23.810;2024-01-15T07:05:47;68.67;;;33.87;;
55465;SDS011;41329;41.594;23.810;2024-01-15T07:08:12;79.03;;;39.07;;
55465;SDS011;41329;41.594;23.810;2024-01-15T07:10:38;55.43;;;29.27;;
55465;SDS011;41329;41.594;23.810;2024-01-15T07:13:03;73.40;;;35.90;;
55465;SDS011;41329;41.594;23.810;2024-01-15T07:15:30;82.43;;;41.10;;
55465;SDS011;41329;41.594;23.810;2024-01-15T07:17:56;95.30;;;44.63;;
55465;SDS011;41329;41.594;23.810;2024-01-15T07:20:21;107.97;;;46.93;;
55465;SDS011;41329;41.594;23.810;2024-01-15T07:22:47;106.27;;;46.27;;
55465;SDS011;41329;41.594;23.810;2024-01-15T07:25:12;91.13;;;41.20;;
55465;SDS011;41329;41.594;23.810;2024-01-15T07:27:38;100.70;;;46.90;;
55465;SDS011;41329;41.594;23.810;2024-01-15T07:30:03;104.83;;;46.57;;
55465;SDS011;41329;41.594;23.810;2024-01-15T07:32:31;85.33;;;40.33;;
55465;SDS011;41329;41.594;23.810;2024-01-15T07:34:57;86.40;;;42.17;;
55465;SDS011;41329;41.594;23.810;2024-01-15T07:37:24;104.47;;;48.10;;
55465;SDS011;41329;41.594;23.810;2024-01-15T07:39:49;90.33;;;41.20;;
55465;SDS011;41329;41.594;23.810;2024-01-15T07:42:15;80.10;;;35.93;;
55465;SDS011;41329;41.594;23.810;2024-01-15T07:44:40;92.50;;;40.83;;
55465;SDS011;41329;41.594;23.810;2024-01-15T07:47:06;84.73;;;41.27;;
55465;SDS011;41329;41.594;23.810;2024-01-15T07:49:32;84.63;;;44.10;;
55465;SDS011;41329;41.594;23.810;2024-01-15T07:51:57;80.40;;;39.47;;
55465;SDS011;41329;41.594;23.810;2024-01-15T07:54:22;224.60;;;86.70;;
55465;SDS011;41329;41.594;23.810;2024-01-15T07:56:58;72.27;;;36.20;;
55465;SDS011;41329;41.594;23.810;2024-01-15T07:59:25;75.80;;;38.37;;
55465;SDS011;41329;41.594;23.810;2024-01-15T08:01:51;73.03;;;34.67;;
55465;SDS011;41329;41.594;23.810;2024-01-15T08:04:17;74.50;;;34.80;;
55465;SDS011;41329;41.594;23.810;2024-01-15T08:06:43;66.73;;;34.90;;
55465;SDS011;41329;41.594;23.810;2024-01-15T08:09:08;80.90;;;38.17;;
55465;SDS011;41329;41.594;23.810;2024-01-15T08:11:39;107.83;;;44.47;;
55465;SDS011;41329;41.594;23.810;2024-01-15T08:14:05;87.10;;;38.47;;
55465;SDS011;41329;41.594;23.810;2024-01-15T08:16:31;81.43;;;38.20;;
55465;SDS011;41329;41.594;23.810;2024-01-15T08:18:56;70.53;;;35.17;;
55465;SDS011;41329;41.594;23.810;2024-01-15T08:21:21;65.93;;;36.13;;
55465;SDS011;41329;41.594;23.810;2024-01-15T08:23:47;65.90;;;34.67;;
55465;SDS011;41329;41.594;23.810;2024-01-15T08:26:12;81.87;;;39.87;;
55465;SDS011;41329;41.594;23.810;2024-01-15T08:28:38;97.53;;;45.13;;
55465;SDS011;41329;41.594;23.810;2024-01-15T08:31:03;65.10;;;35.03;;
55465;SDS011;41329;41.594;23.810;2024-01-15T08:33:29;70.07;;;36.73;;
55465;SDS011;41329;41.594;23.810;2024-01-15T08:35:54;70.53;;;36.07;;
55465;SDS011;41329;41.594;23.810;2024-01-15T08:38:20;88.97;;;42.43;;
55465;SDS011;41329;41.594;23.810;2024-01-15T08:40:45;82.70;;;39.47;;
55465;SDS011;41329;41.594;23.810;2024-01-15T08:43:11;83.50;;;42.37;;
55465;SDS011;41329;41.594;23.810;2024-01-15T08:45:36;61.30;;;33.93;;
55465;SDS011;41329;41.594;23.810;2024-01-15T08:48:02;72.23;;;35.50;;
55465;SDS011;41329;41.594;23.810;2024-01-15T08:50:28;66.47;;;36.20;;
55465;SDS011;41329;41.594;23.810;2024-01-15T08:52:54;72.37;;;35.40;;
55465;SDS011;41329;41.594;23.810;2024-01-15T08:55:20;72.80;;;36.00;;
55465;SDS011;41329;41.594;23.810;2024-01-15T08:57:47;67.00;;;36.97;;
55465;SDS011;41329;41.594;23.810;2024-01-15T09:00:13;62.23;;;34.37;;
55465;SDS011;41329;41.594;23.810;2024-01-15T09:02:39;57.77;;;33.47;;
55465;SDS011;41329;41.594;23.810;2024-01-15T09:05:05;70.40;;;34.43;;
55465;SDS011;41329;41.594;23.810;2024-01-15T09:07:31;67.60;;;34.70;;
55465;SDS011;41329;41.594;23.810;2024-01-15T09:09:57;64.90;;;35.70;;
55465;SDS011;41329;41.594;23.810;2024-01-15T09:12:24;59.33;;;32.83;;
55465;SDS011;41329;41.594;23.810;2024-01-15T09:14:50;64.00;;;34.67;;
55465;SDS011;41329;41.594;23.810;2024-01-15T09:17:17;65.20;;;35.77;;
55465;SDS011;41329;41.594;23.810;2024-01-15T09:19:42;81.77;;;39.50;;
55465;SDS011;41329;41.594;23.810;2024-01-15T09:22:08;83.60;;;39.97;;
55465;SDS011;41329;41.594;23.810;2024-01-15T09:24:33;74.23;;;36.57;;
55465;SDS011;41329;41.594;23.810;2024-01-15T09:26:59;66.37;;;33.77;;
55465;SDS011;41329;41.594;23.810;2024-01-15T09:29:25;51.53;;;31.37;;
55465;SDS011;41329;41.594;23.810;2024-01-15T09:31:51;49.20;;;28.10;;
55465;SDS011;41329;41.594;23.810;2024-01-15T09:34:17;45.97;;;29.63;;
55465;SDS011;41329;41.594;23.810;2024-01-15T09:36:42;44.40;;;28.43;;
55465;SDS011;41329;41.594;23.810;2024-01-15T09:39:08;56.57;;;32.53;;
55465;SDS011;41329;41.594;23.810;2024-01-15T09:41:35;47.77;;;29.17;;
55465;SDS011;41329;41.594;23.810;2024-01-15T09:44:01;50.80;;;29.90;;
55465;SDS011;41329;41.594;23.810;2024-01-15T09:46:28;49.97;;;29.70;;
55465;SDS011;41329;41.594;23.810;2024-01-15T09:48:53;54.10;;;29.73;;
55465;SDS011;41329;41.594;23.810;2024-01-15T09:51:19;52.27;;;30.77;;
55465;SDS011;41329;41.594;23.810;2024-01-15T09:53:45;48.87;;;29.33;;
55465;SDS011;41329;41.594;23.810;2024-01-15T09:56:12;59.03;;;31.50;;
55465;SDS011;41329;41.594;23.810;2024-01-15T09:58:38;53.50;;;30.10;;
55465;SDS011;41329;41.594;23.810;2024-01-15T10:01:04;49.43;;;27.37;;
55465;SDS011;41329;41.594;23.810;2024-01-15T10:03:29;44.00;;;27.53;;
55465;SDS011;41329;41.594;23.810;2024-01-15T10:05:55;49.20;;;28.47;;
55465;SDS011;41329;41.594;23.810;2024-01-15T10:08:24;52.53;;;30.47;;
55465;SDS011;41329;41.594;23.810;2024-01-15T10:10:50;49.97;;;29.23;;
55465;SDS011;41329;41.594;23.810;2024-01-15T10:13:16;62.17;;;33.23;;
55465;SDS011;41329;41.594;23.810;2024-01-15T10:15:45;73.50;;;41.00;;
55465;SDS011;41329;41.594;23.810;2024-01-15T10:18:12;69.40;;;35.50;;
55465;SDS011;41329;41.594;23.810;2024-01-15T10:20:37;68.03;;;36.80;;
55465;SDS011;41329;41.594;23.810;2024-01-15T10:23:04;53.37;;;31.77;;
55465;SDS011;41329;41.594;23.810;2024-01-15T10:25:30;60.37;;;32.20;;
55465;SDS011;41329;41.594;23.810;2024-01-15T10:27:59;42.20;;;25.67;;
55465;SDS011;41329;41.594;23.810;2024-01-15T10:30:26;37.50;;;23.33;;
55465;SDS011;41329;41.594;23.810;2024-01-15T10:32:58;32.50;;;23.23;;
55465;SDS011;41329;41.594;23.810;2024-01-15T10:35:32;38.63;;;24.40;;
55465;SDS011;41329;41.594;23.810;2024-01-15T10:37:59;34.07;;;20.37;;
55465;SDS011;41329;41.594;23.810;2024-01-15T10:40:25;31.63;;;20.50;;
55465;SDS011;41329;41.594;23.810;2024-01-15T10:42:50;32.43;;;20.20;;
55465;SDS011;41329;41.594;23.810;2024-01-15T10:45:16;31.87;;;21.53;;
55465;SDS011;41329;41.594;23.810;2024-01-15T10:47:42;39.80;;;29.57;;
55465;SDS011;41329;41.594;23.810;2024-01-15T10:50:08;19.03;;;17.23;;
55465;SDS011;41329;41.594;23.810;2024-01-15T10:52:37;29.10;;;20.50;;
55465;SDS011;41329;41.594;23.810;2024-01-15T10:55:08;22.73;;;17.57;;
55465;SDS011;41329;41.594;23.810;2024-01-15T10:57:37;23.17;;;18.67;;
55465;SDS011;41329;41.594;23.810;2024-01-15T11:00:04;21.30;;;17.00;;
55465;SDS011;41329;41.594;23.810;2024-01-15T11:02:39;25.80;;;19.03;;
55465;SDS011;41329;41.594;23.810;2024-01-15T11:05:05;20.93;;;17.90;;
55465;SDS011;41329;41.594;23.810;2024-01-15T11:07:31;22.80;;;18.37;;
55465;SDS011;41329;41.594;23.810;2024-01-15T11:09:56;20.67;;;17.43;;
55465;SDS011;41329;41.594;23.810;2024-01-15T11:12:25;23.00;;;17.37;;
55465;SDS011;41329;41.594;23.810;2024-01-15T11:14:50;27.73;;;20.40;;
55465;SDS011;41329;41.594;23.810;2024-01-15T11:17:17;26.87;;;20.50;;
55465;SDS011;41329;41.594;23.810;2024-01-15T11:24:55;22.93;;;17.80;;
55465;SDS011;41329;41.594;23.810;2024-01-15T11:30:13;27.87;;;18.30;;
55465;SDS011;41329;41.594;23.810;2024-01-15T11:32:39;25.40;;;19.03;;
55465;SDS011;41329;41.594;23.810;2024-01-15T11:35:08;29.53;;;19.30;;
55465;SDS011;41329;41.594;23.810;2024-01-15T11:40:20;38.23;;;22.73;;
55465;SDS011;41329;41.594;23.810;2024-01-15T11:42:47;58.50;;;29.50;;
55465;SDS011;41329;41.594;23.810;2024-01-15T11:45:18;46.83;;;24.60;;
55465;SDS011;41329;41.594;23.810;2024-01-15T11:50:32;45.60;;;24.33;;
55465;SDS011;41329;41.594;23.810;2024-01-15T11:52:59;22.17;;;16.20;;
55465;SDS011;41329;41.594;23.810;2024-01-15T11:55:27;27.93;;;17.10;;
55465;SDS011;41329;41.594;23.810;2024-01-15T11:58:00;54.43;;;29.33;;
55465;SDS011;41329;41.594;23.810;2024-01-15T12:00:26;23.83;;;18.33;;
55465;SDS011;41329;41.594;23.810;2024-01-15T12:02:53;21.47;;;18.77;;
55465;SDS011;41329;41.594;23.810;2024-01-15T12:05:19;24.47;;;17.63;;
55465;SDS011;41329;41.594;23.810;2024-01-15T12:07:49;27.67;;;17.63;;
55465;SDS011;41329;41.594;23.810;2024-01-15T12:10:16;29.67;;;19.23;;
55465;SDS011;41329;41.594;23.810;2024-01-15T12:12:58;30.53;;;21.27;;
55465;SDS011;41329;41.594;23.810;2024-01-15T12:15:34;159.67;;;55.03;;
55465;SDS011;41329;41.594;23.810;2024-01-15T12:18:00;78.67;;;32.03;;
55465;SDS011;41329;41.594;23.810;2024-01-15T12:20:27;64.73;;;31.60;;
55465;SDS011;41329;41.594;23.810;2024-01-15T12:22:56;32.53;;;20.20;;
55465;SDS011;41329;41.594;23.810;2024-01-15T12:25:23;205.47;;;61.33;;
55465;SDS011;41329;41.594;23.810;2024-01-15T12:27:49;188.53;;;57.37;;
55465;SDS011;41329;41.594;23.810;2024-01-15T12:30:15;128.77;;;43.77;;
55465;SDS011;41329;41.594;23.810;2024-01-15T12:32:41;99.67;;;35.63;;
55465;SDS011;41329;41.594;23.810;2024-01-15T12:35:07;61.40;;;23.13;;
55465;SDS011;41329;41.594;23.810;2024-01-15T12:37:36;57.70;;;25.20;;
55465;SDS011;41329;41.594;23.810;2024-01-15T12:40:04;38.92;;;19.23;;
55465;SDS011;41329;41.594;23.810;2024-01-15T12:42:32;19.53;;;14.87;;
55465;SDS011;41329;41.594;23.810;2024-01-15T12:44:58;23.03;;;14.63;;
55465;SDS011;41329;41.594;23.810;2024-01-15T12:47:23;36.43;;;19.20;;
55465;SDS011;41329;41.594;23.810;2024-01-15T12:49:51;50.67;;;23.83;;
55465;SDS011;41329;41.594;23.810;2024-01-15T12:52:19;36.47;;;21.13;;
55465;SDS011;41329;41.594;23.810;2024-01-15T12:54:45;36.67;;;21.07;;
55465;SDS011;41329;41.594;23.810;2024-01-15T12:57:10;21.43;;;16.77;;
55465;SDS011;41329;41.594;23.810;2024-01-15T12:59:35;15.17;;;13.63;;
55465;SDS011;41329;41.594;23.810;2024-01-15T13:02:01;18.80;;;15.33;;
55465;SDS011;41329;41.594;23.810;2024-01-15T13:04:26;38.20;;;21.20;;
55465;SDS011;41329;41.594;23.810;2024-01-15T13:06:52;45.50;;;26.30;;
55465;SDS011;41329;41.594;23.810;2024-01-15T13:09:18;53.17;;;28.70;;
55465;SDS011;41329;41.594;23.810;2024-01-15T13:11:44;43.57;;;27.73;;
55465;SDS011;41329;41.594;23.810;2024-01-15T13:14:10;51.40;;;29.17;;
55465;SDS011;41329;41.594;23.810;2024-01-15T13:16:36;103.27;;;46.03;;
55465;SDS011;41329;41.594;23.810;2024-01-15T13:19:01;69.20;;;35.03;;
55465;SDS011;41329;41.594;23.810;2024-01-15T13:21:29;60.43;;;29.77;;
55465;SDS011;41329;41.594;23.810;2024-01-15T13:23:55;57.07;;;29.93;;
55465;SDS011;41329;41.594;23.810;2024-01-15T13:26:20;61.70;;;30.47;;
55465;SDS011;41329;41.594;23.810;2024-01-15T13:28:46;63.73;;;32.30;;
55465;SDS011;41329;41.594;23.810;2024-01-15T13:31:11;45.37;;;27.00;;
55465;SDS011;41329;41.594;23.810;2024-01-15T13:33:38;38.17;;;22.83;;
55465;SDS011;41329;41.594;23.810;2024-01-15T13:36:03;30.10;;;21.73;;
55465;SDS011;41329;41.594;23.810;2024-01-15T13:38:33;44.25;;;25.55;;
55465;SDS011;41329;41.594;23.810;2024-01-15T13:41:01;37.93;;;23.77;;
55465;SDS011;41329;41.594;23.810;2024-01-15T13:43:27;93.97;;;43.37;;
55465;SDS011;41329;41.594;23.810;2024-01-15T13:45:53;93.53;;;40.77;;
55465;SDS011;41329;41.594;23.810;2024-01-15T13:48:19;77.30;;;40.10;;
55465;SDS011;41329;41.594;23.810;2024-01-15T13:50:45;77.37;;;38.07;;
55465;SDS011;41329;41.594;23.810;2024-01-15T13:53:10;102.70;;;49.53;;
55465;SDS011;41329;41.594;23.810;2024-01-15T13:55:36;57.80;;;29.43;;
55465;SDS011;41329;41.594;23.810;2024-01-15T13:58:01;56.60;;;29.67;;
55465;SDS011;41329;41.594;23.810;2024-01-15T14:00:30;41.47;;;27.43;;
55465;SDS011;41329;41.594;23.810;2024-01-15T14:02:56;51.43;;;28.17;;
55465;SDS011;41329;41.594;23.810;2024-01-15T14:05:22;49.90;;;26.43;;
55465;SDS011;41329;41.594;23.810;2024-01-15T14:07:48;40.57;;;26.17;;
55465;SDS011;41329;41.594;23.810;2024-01-15T14:10:13;58.93;;;29.20;;
55465;SDS011;41329;41.594;23.810;2024-01-15T14:12:39;60.50;;;33.80;;